sensor_id;sensor_type;location;lat;lon;timestamp;temperature;humidity
20526;DHT22;10421;49.142;9.232;2022-08-03T00:02:18;27.90;53.30
20526;DHT22;10421;49.142;9.232;2022-08-03T00:04:45;27.80;53.20
20526;DHT22;10421;49.142;9.232;2022-08-03T00:07:13;27.70;53.30
20526;DHT22;10421;49.142;9.232;2022-08-03T00:09:40;27.70;53.40
20526;DHT22;10421;49.142;9.232;2022-08-03T00:12:07;27.70;54.10
20526;DHT22;10421;49.142;9.232;2022-08-03T00:14:34;27.60;53.60
20526;DHT22;10421;49.142;9.232;2022-08-03T00:17:00;27.60;53.70
20526;DHT22;10421;49.142;9.232;2022-08-03T00:19:28;27.60;53.80
20526;DHT22;10421;49.142;9.232;2022-08-03T00:21:54;27.60;53.90
20526;DHT22;10421;49.142;9.232;2022-08-03T00:24:22;27.60;54.10
20526;DHT22;10421;49.142;9.232;2022-08-03T00:26:49;27.50;54.10
20526;DHT22;10421;49.142;9.232;2022-08-03T00:29:16;27.50;54.20
20526;DHT22;10421;49.142;9.232;2022-08-03T00:31:42;27.50;54.10
20526;DHT22;10421;49.142;9.232;2022-08-03T00:34:09;27.40;54.10
20526;DHT22;10421;49.142;9.232;2022-08-03T00:36:36;27.40;54.20
20526;DHT22;10421;49.142;9.232;2022-08-03T00:39:03;27.40;54.80
20526;DHT22;10421;49.142;9.232;2022-08-03T00:41:31;27.40;54.20
20526;DHT22;10421;49.142;9.232;2022-08-03T00:43:57;27.40;54.30
20526;DHT22;10421;49.142;9.232;2022-08-03T00:46:24;27.40;54.40
20526;DHT22;10421;49.142;9.232;2022-08-03T00:48:51;27.30;54.40
20526;DHT22;10421;49.142;9.232;2022-08-03T00:51:19;27.30;54.50
20526;DHT22;10421;49.142;9.232;2022-08-03T00:53:46;27.30;54.50
20526;DHT22;10421;49.142;9.232;2022-08-03T00:56:13;27.30;54.50
20526;DHT22;10421;49.142;9.232;2022-08-03T00:58:43;27.20;54.50
20526;DHT22;10421;49.142;9.232;2022-08-03T01:01:10;27.20;54.60
20526;DHT22;10421;49.142;9.232;2022-08-03T01:03:37;27.20;54.70
20526;DHT22;10421;49.142;9.232;2022-08-03T01:06:09;27.20;54.70
20526;DHT22;10421;49.142;9.232;2022-08-03T01:08:43;27.10;54.70
20526;DHT22;10421;49.142;9.232;2022-08-03T01:11:15;27.10;54.80
20526;DHT22;10421;49.142;9.232;2022-08-03T01:13:52;27.00;54.90
20526;DHT22;10421;49.142;9.232;2022-08-03T01:16:24;27.00;55.00
20526;DHT22;10421;49.142;9.232;2022-08-03T01:18:57;26.90;55.10
20526;DHT22;10421;49.142;9.232;2022-08-03T01:21:27;26.90;55.20
20526;DHT22;10421;49.142;9.232;2022-08-03T01:24:16;26.80;55.20
20526;DHT22;10421;49.142;9.232;2022-08-03T01:26:58;26.80;55.30
20526;DHT22;10421;49.142;9.232;2022-08-03T01:29:55;26.80;55.30
20526;DHT22;10421;49.142;9.232;2022-08-03T01:32:27;26.70;55.30
20526;DHT22;10421;49.142;9.232;2022-08-03T01:35:00;26.60;55.50
20526;DHT22;10421;49.142;9.232;2022-08-03T01:37:37;26.50;55.70
20526;DHT22;10421;49.142;9.232;2022-08-03T01:40:06;26.50;55.80
20526;DHT22;10421;49.142;9.232;2022-08-03T01:42:34;26.40;55.80
20526;DHT22;10421;49.142;9.232;2022-08-03T01:45:04;26.40;55.80
20526;DHT22;10421;49.142;9.232;2022-08-03T01:47:34;26.30;55.90
20526;DHT22;10421;49.142;9.232;2022-08-03T01:50:02;26.30;56.10
20526;DHT22;10421;49.142;9.232;2022-08-03T01:52:31;26.20;56.20
20526;DHT22;10421;49.142;9.232;2022-08-03T01:55:00;26.20;56.30
20526;DHT22;10421;49.142;9.232;2022-08-03T01:57:29;26.20;56.30
20526;DHT22;10421;49.142;9.232;2022-08-03T01:59:56;26.10;56.30
20526;DHT22;10421;49.142;9.232;2022-08-03T02:02:25;26.10;56.40
20526;DHT22;10421;49.142;9.232;2022-08-03T02:04:55;26.10;56.50
20526;DHT22;10421;49.142;9.232;2022-08-03T02:07:22;26.10;56.60
20526;DHT22;10421;49.142;9.232;2022-08-03T02:09:51;26.10;56.70
20526;DHT22;10421;49.142;9.232;2022-08-03T02:12:19;26.10;56.80
20526;DHT22;10421;49.142;9.232;2022-08-03T02:14:48;26.10;56.90
20526;DHT22;10421;49.142;9.232;2022-08-03T02:17:16;26.10;56.90
20526;DHT22;10421;49.142;9.232;2022-08-03T02:19:45;26.00;57.00
20526;DHT22;10421;49.142;9.232;2022-08-03T02:22:13;26.00;57.10
20526;DHT22;10421;49.142;9.232;2022-08-03T02:24:40;25.90;57.20
20526;DHT22;10421;49.142;9.232;2022-08-03T02:27:13;25.80;57.40
20526;DHT22;10421;49.142;9.232;2022-08-03T02:29:42;25.80;57.60
20526;DHT22;10421;49.142;9.232;2022-08-03T02:32:15;25.80;57.80
20526;DHT22;10421;49.142;9.232;2022-08-03T02:34:48;25.70;58.00
20526;DHT22;10421;49.142;9.232;2022-08-03T02:37:17;25.60;58.00
20526;DHT22;10421;49.142;9.232;2022-08-03T02:39:46;25.70;58.20
20526;DHT22;10421;49.142;9.232;2022-08-03T02:42:14;25.70;58.30
20526;DHT22;10421;49.142;9.232;2022-08-03T02:44:44;25.70;58.30
20526;DHT22;10421;49.142;9.232;2022-08-03T02:47:14;25.70;58.40
20526;DHT22;10421;49.142;9.232;2022-08-03T02:49:47;25.70;58.50
20526;DHT22;10421;49.142;9.232;2022-08-03T02:52:14;25.70;58.50
20526;DHT22;10421;49.142;9.232;2022-08-03T02:54:42;25.70;58.50
20526;DHT22;10421;49.142;9.232;2022-08-03T02:57:10;25.80;58.50
20526;DHT22;10421;49.142;9.232;2022-08-03T02:59:38;25.80;58.50
20526;DHT22;10421;49.142;9.232;2022-08-03T03:02:05;25.80;58.50
20526;DHT22;10421;49.142;9.232;2022-08-03T03:04:32;25.70;58.60
20526;DHT22;10421;49.142;9.232;2022-08-03T03:07:02;25.60;58.80
20526;DHT22;10421;49.142;9.232;2022-08-03T03:09:30;25.60;59.10
20526;DHT22;10421;49.142;9.232;2022-08-03T03:11:57;25.50;59.20
20526;DHT22;10421;49.142;9.232;2022-08-03T03:14:24;25.40;59.20
20526;DHT22;10421;49.142;9.232;2022-08-03T03:16:52;25.40;59.30
20526;DHT22;10421;49.142;9.232;2022-08-03T03:19:19;25.40;59.30
20526;DHT22;10421;49.142;9.232;2022-08-03T03:21:46;25.40;59.30
20526;DHT22;10421;49.142;9.232;2022-08-03T03:24:15;25.30;59.40
20526;DHT22;10421;49.142;9.232;2022-08-03T03:26:43;25.30;59.40
20526;DHT22;10421;49.142;9.232;2022-08-03T03:29:10;25.20;59.40
20526;DHT22;10421;49.142;9.232;2022-08-03T03:31:37;25.20;59.50
20526;DHT22;10421;49.142;9.232;2022-08-03T03:34:04;25.20;59.50
20526;DHT22;10421;49.142;9.232;2022-08-03T03:36:31;25.10;59.80
20526;DHT22;10421;49.142;9.232;2022-08-03T03:38:57;25.00;59.60
20526;DHT22;10421;49.142;9.232;2022-08-03T03:41:25;25.00;59.80
20526;DHT22;10421;49.142;9.232;2022-08-03T03:43:52;25.00;60.00
20526;DHT22;10421;49.142;9.232;2022-08-03T03:46:19;24.90;60.10
20526;DHT22;10421;49.142;9.232;2022-08-03T03:48:46;24.90;60.10
20526;DHT22;10421;49.142;9.232;2022-08-03T03:51:14;24.90;61.00
20526;DHT22;10421;49.142;9.232;2022-08-03T03:53:53;24.90;60.30
20526;DHT22;10421;49.142;9.232;2022-08-03T03:56:20;24.90;60.30
20526;DHT22;10421;49.142;9.232;2022-08-03T03:58:48;24.80;60.30
20526;DHT22;10421;49.142;9.232;2022-08-03T04:01:15;24.80;60.60
20526;DHT22;10421;49.142;9.232;2022-08-03T04:03:42;24.80;60.70
20526;DHT22;10421;49.142;9.232;2022-08-03T04:06:08;24.80;60.70
20526;DHT22;10421;49.142;9.232;2022-08-03T04:08:53;24.80;60.80
20526;DHT22;10421;49.142;9.232;2022-08-03T04:11:44;24.70;60.90
20526;DHT22;10421;49.142;9.232;2022-08-03T04:14:18;24.80;61.00
20526;DHT22;10421;49.142;9.232;2022-08-03T04:16:48;24.70;61.00
20526;DHT22;10421;49.142;9.232;2022-08-03T04:19:18;24.70;61.10
20526;DHT22;10421;49.142;9.232;2022-08-03T04:21:49;24.70;61.20
20526;DHT22;10421;49.142;9.232;2022-08-03T04:24:17;24.70;61.10
20526;DHT22;10421;49.142;9.232;2022-08-03T04:26:48;24.60;61.00
20526;DHT22;10421;49.142;9.232;2022-08-03T04:29:18;24.60;61.30
20526;DHT22;10421;49.142;9.232;2022-08-03T04:31:45;24.60;61.50
20526;DHT22;10421;49.142;9.232;2022-08-03T04:34:14;24.60;61.50
20526;DHT22;10421;49.142;9.232;2022-08-03T04:36:46;24.60;61.60
20526;DHT22;10421;49.142;9.232;2022-08-03T04:39:18;24.50;61.70
20526;DHT22;10421;49.142;9.232;2022-08-03T04:41:48;24.50;61.90
20526;DHT22;10421;49.142;9.232;2022-08-03T04:44:18;24.50;62.00
20526;DHT22;10421;49.142;9.232;2022-08-03T04:46:47;24.50;62.20
20526;DHT22;10421;49.142;9.232;2022-08-03T04:49:14;24.50;62.10
20526;DHT22;10421;49.142;9.232;2022-08-03T04:51:41;24.50;62.20
20526;DHT22;10421;49.142;9.232;2022-08-03T04:54:11;24.50;62.30
20526;DHT22;10421;49.142;9.232;2022-08-03T04:56:38;24.50;62.40
20526;DHT22;10421;49.142;9.232;2022-08-03T04:59:05;24.50;62.50
20526;DHT22;10421;49.142;9.232;2022-08-03T05:01:34;24.50;62.50
20526;DHT22;10421;49.142;9.232;2022-08-03T05:04:00;24.50;62.50
20526;DHT22;10421;49.142;9.232;2022-08-03T05:06:27;24.50;62.70
20526;DHT22;10421;49.142;9.232;2022-08-03T05:08:54;24.50;62.70
20526;DHT22;10421;49.142;9.232;2022-08-03T05:11:21;24.50;62.70
20526;DHT22;10421;49.142;9.232;2022-08-03T05:13:48;24.50;62.70
20526;DHT22;10421;49.142;9.232;2022-08-03T05:16:15;24.60;63.10
20526;DHT22;10421;49.142;9.232;2022-08-03T05:18:43;24.60;63.00
20526;DHT22;10421;49.142;9.232;2022-08-03T05:21:12;24.60;62.90
20526;DHT22;10421;49.142;9.232;2022-08-03T05:23:41;24.60;62.80
20526;DHT22;10421;49.142;9.232;2022-08-03T05:26:08;24.70;63.00
20526;DHT22;10421;49.142;9.232;2022-08-03T05:28:36;24.70;63.00
20526;DHT22;10421;49.142;9.232;2022-08-03T05:31:03;24.70;63.10
20526;DHT22;10421;49.142;9.232;2022-08-03T05:33:29;24.70;63.30
20526;DHT22;10421;49.142;9.232;2022-08-03T05:35:57;24.80;63.40
20526;DHT22;10421;49.142;9.232;2022-08-03T05:38:25;24.80;63.40
20526;DHT22;10421;49.142;9.232;2022-08-03T05:40:52;24.90;63.60
20526;DHT22;10421;49.142;9.232;2022-08-03T05:43:19;24.90;63.60
20526;DHT22;10421;49.142;9.232;2022-08-03T05:45:46;25.00;63.80
20526;DHT22;10421;49.142;9.232;2022-08-03T05:48:13;25.00;63.80
20526;DHT22;10421;49.142;9.232;2022-08-03T05:50:39;25.10;63.80
20526;DHT22;10421;49.142;9.232;2022-08-03T05:53:07;25.10;63.80
20526;DHT22;10421;49.142;9.232;2022-08-03T05:55:34;25.20;63.80
20526;DHT22;10421;49.142;9.232;2022-08-03T05:58:01;25.20;63.80
20526;DHT22;10421;49.142;9.232;2022-08-03T06:00:28;25.20;63.70
20526;DHT22;10421;49.142;9.232;2022-08-03T06:02:55;25.30;63.80
20526;DHT22;10421;49.142;9.232;2022-08-03T06:05:21;25.30;63.70
20526;DHT22;10421;49.142;9.232;2022-08-03T06:07:51;25.40;63.70
20526;DHT22;10421;49.142;9.232;2022-08-03T06:10:19;25.40;63.80
20526;DHT22;10421;49.142;9.232;2022-08-03T06:12:46;25.40;63.70
20526;DHT22;10421;49.142;9.232;2022-08-03T06:15:14;25.50;63.70
20526;DHT22;10421;49.142;9.232;2022-08-03T06:17:45;25.50;63.50
20526;DHT22;10421;49.142;9.232;2022-08-03T06:20:12;25.50;63.30
20526;DHT22;10421;49.142;9.232;2022-08-03T06:22:39;25.60;63.20
20526;DHT22;10421;49.142;9.232;2022-08-03T06:25:06;25.60;63.20
20526;DHT22;10421;49.142;9.232;2022-08-03T06:27:34;25.60;63.10
20526;DHT22;10421;49.142;9.232;2022-08-03T06:30:05;25.70;63.10
20526;DHT22;10421;49.142;9.232;2022-08-03T06:32:32;25.70;63.10
20526;DHT22;10421;49.142;9.232;2022-08-03T06:34:59;25.80;63.10
20526;DHT22;10421;49.142;9.232;2022-08-03T06:37:26;25.80;63.10
20526;DHT22;10421;49.142;9.232;2022-08-03T06:39:53;25.90;63.00
20526;DHT22;10421;49.142;9.232;2022-08-03T06:42:20;26.00;62.90
20526;DHT22;10421;49.142;9.232;2022-08-03T06:44:48;26.10;62.70
20526;DHT22;10421;49.142;9.232;2022-08-03T06:47:15;26.10;62.30
20526;DHT22;10421;49.142;9.232;2022-08-03T06:49:42;26.10;62.30
20526;DHT22;10421;49.142;9.232;2022-08-03T06:52:09;26.20;62.30
20526;DHT22;10421;49.142;9.232;2022-08-03T06:54:35;26.20;62.10
20526;DHT22;10421;49.142;9.232;2022-08-03T06:57:03;26.30;62.10
20526;DHT22;10421;49.142;9.232;2022-08-03T06:59:29;26.40;62.20
20526;DHT22;10421;49.142;9.232;2022-08-03T07:01:58;26.50;62.10
20526;DHT22;10421;49.142;9.232;2022-08-03T07:04:24;26.60;62.10
20526;DHT22;10421;49.142;9.232;2022-08-03T07:06:51;26.70;61.90
20526;DHT22;10421;49.142;9.232;2022-08-03T07:09:18;26.70;61.60
20526;DHT22;10421;49.142;9.232;2022-08-03T07:11:45;26.70;61.50
20526;DHT22;10421;49.142;9.232;2022-08-03T07:14:12;26.80;61.10
20526;DHT22;10421;49.142;9.232;2022-08-03T07:16:39;26.90;61.00
20526;DHT22;10421;49.142;9.232;2022-08-03T07:19:07;27.00;60.80
20526;DHT22;10421;49.142;9.232;2022-08-03T07:21:33;27.10;60.50
20526;DHT22;10421;49.142;9.232;2022-08-03T07:24:00;27.30;60.30
20526;DHT22;10421;49.142;9.232;2022-08-03T07:26:27;27.30;60.00
20526;DHT22;10421;49.142;9.232;2022-08-03T07:28:53;27.40;59.90
20526;DHT22;10421;49.142;9.232;2022-08-03T07:31:20;27.60;59.90
20526;DHT22;10421;49.142;9.232;2022-08-03T07:33:47;27.60;59.70
20526;DHT22;10421;49.142;9.232;2022-08-03T07:36:15;27.70;59.50
20526;DHT22;10421;49.142;9.232;2022-08-03T07:38:42;27.80;59.40
20526;DHT22;10421;49.142;9.232;2022-08-03T07:41:09;27.90;59.10
20526;DHT22;10421;49.142;9.232;2022-08-03T07:43:35;27.90;59.00
20526;DHT22;10421;49.142;9.232;2022-08-03T07:46:02;28.00;59.00
20526;DHT22;10421;49.142;9.232;2022-08-03T07:48:29;28.10;58.90
20526;DHT22;10421;49.142;9.232;2022-08-03T07:50:55;28.20;58.80
20526;DHT22;10421;49.142;9.232;2022-08-03T07:53:23;28.30;58.60
20526;DHT22;10421;49.142;9.232;2022-08-03T07:55:50;28.50;58.50
20526;DHT22;10421;49.142;9.232;2022-08-03T07:58:17;28.60;58.30
20526;DHT22;10421;49.142;9.232;2022-08-03T08:00:43;28.60;57.90
20526;DHT22;10421;49.142;9.232;2022-08-03T08:03:10;28.70;58.00
20526;DHT22;10421;49.142;9.232;2022-08-03T08:05:37;28.80;57.90
20526;DHT22;10421;49.142;9.232;2022-08-03T08:08:04;29.00;57.70
20526;DHT22;10421;49.142;9.232;2022-08-03T08:10:33;29.00;57.30
20526;DHT22;10421;49.142;9.232;2022-08-03T08:13:00;29.10;57.10
20526;DHT22;10421;49.142;9.232;2022-08-03T08:15:27;29.20;56.90
20526;DHT22;10421;49.142;9.232;2022-08-03T08:17:56;29.30;56.80
20526;DHT22;10421;49.142;9.232;2022-08-03T08:20:24;29.40;56.70
20526;DHT22;10421;49.142;9.232;2022-08-03T08:22:51;29.50;56.40
20526;DHT22;10421;49.142;9.232;2022-08-03T08:25:18;29.60;56.20
20526;DHT22;10421;49.142;9.232;2022-08-03T08:27:48;29.70;56.00
20526;DHT22;10421;49.142;9.232;2022-08-03T08:30:17;29.80;56.00
20526;DHT22;10421;49.142;9.232;2022-08-03T08:32:44;29.90;55.90
20526;DHT22;10421;49.142;9.232;2022-08-03T08:35:12;30.00;55.50
20526;DHT22;10421;49.142;9.232;2022-08-03T08:37:39;30.00;55.30
20526;DHT22;10421;49.142;9.232;2022-08-03T08:40:07;30.20;55.40
20526;DHT22;10421;49.142;9.232;2022-08-03T08:42:36;30.30;55.30
20526;DHT22;10421;49.142;9.232;2022-08-03T08:45:06;30.40;55.00
20526;DHT22;10421;49.142;9.232;2022-08-03T08:47:36;30.50;54.70
20526;DHT22;10421;49.142;9.232;2022-08-03T08:50:04;30.70;54.50
20526;DHT22;10421;49.142;9.232;2022-08-03T08:52:33;30.80;54.40
20526;DHT22;10421;49.142;9.232;2022-08-03T08:55:01;30.90;54.20
20526;DHT22;10421;49.142;9.232;2022-08-03T08:57:30;31.00;54.00
20526;DHT22;10421;49.142;9.232;2022-08-03T08:59:58;31.10;53.80
20526;DHT22;10421;49.142;9.232;2022-08-03T09:02:29;31.30;53.60
20526;DHT22;10421;49.142;9.232;2022-08-03T09:04:56;31.40;53.50
20526;DHT22;10421;49.142;9.232;2022-08-03T09:07:23;31.60;53.20
20526;DHT22;10421;49.142;9.232;2022-08-03T09:09:50;31.70;52.80
20526;DHT22;10421;49.142;9.232;2022-08-03T09:12:17;31.80;52.50
20526;DHT22;10421;49.142;9.232;2022-08-03T09:14:43;31.90;52.30
20526;DHT22;10421;49.142;9.232;2022-08-03T09:17:10;32.10;52.00
20526;DHT22;10421;49.142;9.232;2022-08-03T09:19:38;32.20;51.60
20526;DHT22;10421;49.142;9.232;2022-08-03T09:22:08;32.40;51.20
20526;DHT22;10421;49.142;9.232;2022-08-03T09:24:36;32.50;51.00
20526;DHT22;10421;49.142;9.232;2022-08-03T09:27:05;32.60;50.90
20526;DHT22;10421;49.142;9.232;2022-08-03T09:29:33;32.70;50.80
20526;DHT22;10421;49.142;9.232;2022-08-03T09:32:01;32.90;50.40
20526;DHT22;10421;49.142;9.232;2022-08-03T09:34:28;33.10;50.30
20526;DHT22;10421;49.142;9.232;2022-08-03T09:36:57;33.20;50.00
20526;DHT22;10421;49.142;9.232;2022-08-03T09:39:25;33.30;49.40
20526;DHT22;10421;49.142;9.232;2022-08-03T09:42:04;33.40;48.80
20526;DHT22;10421;49.142;9.232;2022-08-03T09:44:33;33.50;46.20
20526;DHT22;10421;49.142;9.232;2022-08-03T09:47:00;33.50;45.70
20526;DHT22;10421;49.142;9.232;2022-08-03T09:49:27;33.50;45.60
20526;DHT22;10421;49.142;9.232;2022-08-03T09:51:53;33.50;45.50
20526;DHT22;10421;49.142;9.232;2022-08-03T09:54:28;33.60;45.10
20526;DHT22;10421;49.142;9.232;2022-08-03T09:56:56;33.70;45.20
20526;DHT22;10421;49.142;9.232;2022-08-03T09:59:24;33.80;45.20
20526;DHT22;10421;49.142;9.232;2022-08-03T10:01:52;33.80;45.00
20526;DHT22;10421;49.142;9.232;2022-08-03T10:04:19;33.90;44.60
20526;DHT22;10421;49.142;9.232;2022-08-03T10:07:02;33.90;44.60
20526;DHT22;10421;49.142;9.232;2022-08-03T10:09:30;34.00;44.60
20526;DHT22;10421;49.142;9.232;2022-08-03T10:11:57;34.20;44.20
20526;DHT22;10421;49.142;9.232;2022-08-03T10:14:32;34.20;44.00
20526;DHT22;10421;49.142;9.232;2022-08-03T10:17:01;34.30;43.80
20526;DHT22;10421;49.142;9.232;2022-08-03T10:19:28;34.40;43.80
20526;DHT22;10421;49.142;9.232;2022-08-03T10:21:56;34.50;43.50
20526;DHT22;10421;49.142;9.232;2022-08-03T10:24:27;34.60;43.90
20526;DHT22;10421;49.142;9.232;2022-08-03T10:27:00;34.80;44.10
20526;DHT22;10421;49.142;9.232;2022-08-03T10:29:28;34.90;44.00
20526;DHT22;10421;49.142;9.232;2022-08-03T10:31:58;35.10;44.00
20526;DHT22;10421;49.142;9.232;2022-08-03T10:34:31;35.10;43.90
20526;DHT22;10421;49.142;9.232;2022-08-03T10:37:01;35.00;43.80
20526;DHT22;10421;49.142;9.232;2022-08-03T10:39:29;34.90;43.90
20526;DHT22;10421;49.142;9.232;2022-08-03T10:41:57;34.90;44.10
20526;DHT22;10421;49.142;9.232;2022-08-03T10:44:30;35.00;44.30
20526;DHT22;10421;49.142;9.232;2022-08-03T10:46:58;35.10;43.80
20526;DHT22;10421;49.142;9.232;2022-08-03T10:49:25;35.30;43.50
20526;DHT22;10421;49.142;9.232;2022-08-03T10:51:52;35.40;43.20
20526;DHT22;10421;49.142;9.232;2022-08-03T10:54:36;35.40;43.10
20526;DHT22;10421;49.142;9.232;2022-08-03T10:57:48;35.40;44.00
20526;DHT22;10421;49.142;9.232;2022-08-03T11:00:15;35.50;43.20
20526;DHT22;10421;49.142;9.232;2022-08-03T11:03:01;35.60;43.00
20526;DHT22;10421;49.142;9.232;2022-08-03T11:05:29;35.50;42.60
20526;DHT22;10421;49.142;9.232;2022-08-03T11:08:25;35.60;42.70
20526;DHT22;10421;49.142;9.232;2022-08-03T11:10:54;35.60;42.60
20526;DHT22;10421;49.142;9.232;2022-08-03T11:13:24;35.60;42.40
20526;DHT22;10421;49.142;9.232;2022-08-03T11:15:54;35.50;42.50
20526;DHT22;10421;49.142;9.232;2022-08-03T11:18:22;35.60;42.60
20526;DHT22;10421;49.142;9.232;2022-08-03T11:20:50;35.60;42.50
20526;DHT22;10421;49.142;9.232;2022-08-03T11:23:41;35.80;42.80
20526;DHT22;10421;49.142;9.232;2022-08-03T11:26:10;35.90;42.30
20526;DHT22;10421;49.142;9.232;2022-08-03T11:28:39;36.10;42.00
20526;DHT22;10421;49.142;9.232;2022-08-03T11:34:18;36.10;41.50
20526;DHT22;10421;49.142;9.232;2022-08-03T11:37:22;36.10;41.10
20526;DHT22;10421;49.142;9.232;2022-08-03T11:39:51;36.00;40.50
20526;DHT22;10421;49.142;9.232;2022-08-03T11:42:41;35.70;40.90
20526;DHT22;10421;49.142;9.232;2022-08-03T11:45:13;35.70;41.00
20526;DHT22;10421;49.142;9.232;2022-08-03T11:47:40;35.70;41.20
20526;DHT22;10421;49.142;9.232;2022-08-03T11:50:09;35.90;41.30
20526;DHT22;10421;49.142;9.232;2022-08-03T11:52:38;36.00;41.50
20526;DHT22;10421;49.142;9.232;2022-08-03T11:55:10;36.10;41.00
20526;DHT22;10421;49.142;9.232;2022-08-03T11:57:37;36.40;40.90
20526;DHT22;10421;49.142;9.232;2022-08-03T12:00:20;36.60;40.50
20526;DHT22;10421;49.142;9.232;2022-08-03T12:03:02;36.70;39.90
20526;DHT22;10421;49.142;9.232;2022-08-03T12:05:38;36.70;39.70
20526;DHT22;10421;49.142;9.232;2022-08-03T12:08:06;36.80;40.30
20526;DHT22;10421;49.142;9.232;2022-08-03T12:10:34;36.90;40.10
20526;DHT22;10421;49.142;9.232;2022-08-03T12:13:01;36.70;38.90
20526;DHT22;10421;49.142;9.232;2022-08-03T12:15:32;36.70;39.00
20526;DHT22;10421;49.142;9.232;2022-08-03T12:18:00;36.70;39.00
20526;DHT22;10421;49.142;9.232;2022-08-03T12:20:29;36.60;39.30
20526;DHT22;10421;49.142;9.232;2022-08-03T12:23:02;36.70;39.80
20526;DHT22;10421;49.142;9.232;2022-08-03T12:25:29;36.70;39.60
20526;DHT22;10421;49.142;9.232;2022-08-03T12:28:08;36.90;39.80
20526;DHT22;10421;49.142;9.232;2022-08-03T12:30:37;37.10;39.70
20526;DHT22;10421;49.142;9.232;2022-08-03T12:33:17;37.20;39.30
20526;DHT22;10421;49.142;9.232;2022-08-03T12:35:46;37.40;39.30
20526;DHT22;10421;49.142;9.232;2022-08-03T12:38:19;37.50;39.20
20526;DHT22;10421;49.142;9.232;2022-08-03T12:40:55;37.50;39.20
20526;DHT22;10421;49.142;9.232;2022-08-03T12:43:22;37.50;39.10
20526;DHT22;10421;49.142;9.232;2022-08-03T12:45:50;37.50;39.20
20526;DHT22;10421;49.142;9.232;2022-08-03T12:48:17;37.50;39.30
20526;DHT22;10421;49.142;9.232;2022-08-03T12:50:43;37.60;39.20
20526;DHT22;10421;49.142;9.232;2022-08-03T12:53:10;37.70;39.00
20526;DHT22;10421;49.142;9.232;2022-08-03T12:55:37;37.80;38.60
20526;DHT22;10421;49.142;9.232;2022-08-03T12:58:05;37.80;38.30
20526;DHT22;10421;49.142;9.232;2022-08-03T13:00:36;37.90;38.40
20526;DHT22;10421;49.142;9.232;2022-08-03T13:03:05;37.90;38.30
20526;DHT22;10421;49.142;9.232;2022-08-03T13:05:42;38.10;37.80
20526;DHT22;10421;49.142;9.232;2022-08-03T13:08:17;38.10;36.60
20526;DHT22;10421;49.142;9.232;2022-08-03T13:10:43;38.20;36.50
20526;DHT22;10421;49.142;9.232;2022-08-03T13:13:10;38.00;36.20
20526;DHT22;10421;49.142;9.232;2022-08-03T13:15:37;38.00;35.90
20526;DHT22;10421;49.142;9.232;2022-08-03T13:18:05;37.80;36.30
20526;DHT22;10421;49.142;9.232;2022-08-03T13:20:32;37.80;36.70
20526;DHT22;10421;49.142;9.232;2022-08-03T13:22:59;37.80;37.00
20526;DHT22;10421;49.142;9.232;2022-08-03T13:25:26;37.60;37.20
20526;DHT22;10421;49.142;9.232;2022-08-03T13:27:52;37.50;37.10
20526;DHT22;10421;49.142;9.232;2022-08-03T13:30:19;37.50;37.20
20526;DHT22;10421;49.142;9.232;2022-08-03T13:32:46;37.60;37.10
20526;DHT22;10421;49.142;9.232;2022-08-03T13:35:14;37.70;36.90
20526;DHT22;10421;49.142;9.232;2022-08-03T13:37:41;37.80;37.00
20526;DHT22;10421;49.142;9.232;2022-08-03T13:40:08;38.00;36.90
20526;DHT22;10421;49.142;9.232;2022-08-03T13:42:35;38.20;36.50
20526;DHT22;10421;49.142;9.232;2022-08-03T13:45:04;38.30;36.40
20526;DHT22;10421;49.142;9.232;2022-08-03T13:47:31;38.40;36.30
20526;DHT22;10421;49.142;9.232;2022-08-03T13:49:57;38.30;36.00
20526;DHT22;10421;49.142;9.232;2022-08-03T13:52:26;38.30;36.10
20526;DHT22;10421;49.142;9.232;2022-08-03T13:54:52;38.30;35.90
20526;DHT22;10421;49.142;9.232;2022-08-03T13:57:19;38.20;35.60
20526;DHT22;10421;49.142;9.232;2022-08-03T13:59:46;38.20;35.80
20526;DHT22;10421;49.142;9.232;2022-08-03T14:02:14;38.20;35.80
20526;DHT22;10421;49.142;9.232;2022-08-03T14:04:40;38.30;35.60
20526;DHT22;10421;49.142;9.232;2022-08-03T14:07:07;38.20;35.60
20526;DHT22;10421;49.142;9.232;2022-08-03T14:09:35;38.30;35.60
20526;DHT22;10421;49.142;9.232;2022-08-03T14:12:02;38.40;35.70
20526;DHT22;10421;49.142;9.232;2022-08-03T14:14:29;38.50;35.50
20526;DHT22;10421;49.142;9.232;2022-08-03T14:16:56;38.60;35.50
20526;DHT22;10421;49.142;9.232;2022-08-03T14:19:22;38.70;35.40
20526;DHT22;10421;49.142;9.232;2022-08-03T14:21:49;38.70;35.20
20526;DHT22;10421;49.142;9.232;2022-08-03T14:24:16;38.70;35.20
20526;DHT22;10421;49.142;9.232;2022-08-03T14:26:45;38.70;35.10
20526;DHT22;10421;49.142;9.232;2022-08-03T14:29:12;38.60;35.00
20526;DHT22;10421;49.142;9.232;2022-08-03T14:31:39;38.60;34.90
20526;DHT22;10421;49.142;9.232;2022-08-03T14:34:06;38.60;34.70
20526;DHT22;10421;49.142;9.232;2022-08-03T14:36:32;38.60;34.60
20526;DHT22;10421;49.142;9.232;2022-08-03T14:39:05;38.50;34.40
20526;DHT22;10421;49.142;9.232;2022-08-03T14:41:31;38.40;34.50
20526;DHT22;10421;49.142;9.232;2022-08-03T14:44:02;38.30;34.50
20526;DHT22;10421;49.142;9.232;2022-08-03T14:46:29;38.20;34.80
20526;DHT22;10421;49.142;9.232;2022-08-03T14:48:56;38.00;34.60
20526;DHT22;10421;49.142;9.232;2022-08-03T14:51:23;37.90;34.70
20526;DHT22;10421;49.142;9.232;2022-08-03T14:53:50;37.90;34.90
20526;DHT22;10421;49.142;9.232;2022-08-03T14:56:17;38.00;35.00
20526;DHT22;10421;49.142;9.232;2022-08-03T14:58:43;38.10;35.10
20526;DHT22;10421;49.142;9.232;2022-08-03T15:01:11;38.30;35.00
20526;DHT22;10421;49.142;9.232;2022-08-03T15:03:38;38.50;34.90
20526;DHT22;10421;49.142;9.232;2022-08-03T15:06:05;38.60;34.60
20526;DHT22;10421;49.142;9.232;2022-08-03T15:08:32;38.70;34.60
20526;DHT22;10421;49.142;9.232;2022-08-03T15:10:59;38.90;34.50
20526;DHT22;10421;49.142;9.232;2022-08-03T15:13:26;39.00;34.30
20526;DHT22;10421;49.142;9.232;2022-08-03T15:15:53;39.10;34.10
20526;DHT22;10421;49.142;9.232;2022-08-03T15:18:23;39.20;34.30
20526;DHT22;10421;49.142;9.232;2022-08-03T15:20:50;39.40;34.70
20526;DHT22;10421;49.142;9.232;2022-08-03T15:23:17;39.40;33.50
20526;DHT22;10421;49.142;9.232;2022-08-03T15:25:45;39.30;33.40
20526;DHT22;10421;49.142;9.232;2022-08-03T15:28:12;39.30;33.50
20526;DHT22;10421;49.142;9.232;2022-08-03T15:30:38;39.20;33.40
20526;DHT22;10421;49.142;9.232;2022-08-03T15:33:05;39.10;33.60
20526;DHT22;10421;49.142;9.232;2022-08-03T15:35:33;39.00;33.60
20526;DHT22;10421;49.142;9.232;2022-08-03T15:38:00;38.90;33.60
20526;DHT22;10421;49.142;9.232;2022-08-03T15:40:27;38.80;33.50
20526;DHT22;10421;49.142;9.232;2022-08-03T15:42:54;38.80;33.70
20526;DHT22;10421;49.142;9.232;2022-08-03T15:45:20;38.60;34.30